sensor_id;sensor_type;location;lat;lon;timestamp;P1;durP1;ratioP1;P2;durP2;ratioP2
21110;SDS011;10713;51.912;4.494;2023-05-10T00:00:21;45.90;;;21.90;;
21110;SDS011;10713;51.912;4.494;2023-05-10T00:02:48;53.80;;;23.15;;
21110;SDS011;10713;51.912;4.494;2023-05-10T00:05:14;54.33;;;24.67;;
21110;SDS011;10713;51.912;4.494;2023-05-10T00:07:39;56.78;;;24.38;;
21110;SDS011;10713;51.912;4.494;2023-05-10T00:10:05;51.58;;;22.85;;
21110;SDS011;10713;51.912;4.494;2023-05-10T00:12:31;53.72;;;23.08;;
21110;SDS011;10713;51.912;4.494;2023-05-10T00:14:56;50.75;;;22.00;;
21110;SDS011;10713;51.912;4.494;2023-05-10T00:17:21;44.17;;;20.45;;
21110;SDS011;10713;51.912;4.494;2023-05-10T00:19:47;48.85;;;21.70;;
21110;SDS011;10713;51.912;4.494;2023-05-10T00:22:13;45.53;;;19.35;;
21110;SDS011;10713;51.912;4.494;2023-05-10T00:24:38;55.45;;;23.60;;
21110;SDS011;10713;51.912;4.494;2023-05-10T00:27:03;57.92;;;22.95;;
21110;SDS011;10713;51.912;4.494;2023-05-10T00:29:30;51.97;;;22.63;;
21110;SDS011;10713;51.912;4.494;2023-05-10T00:31:56;45.55;;;20.60;;
21110;SDS011;10713;51.912;4.494;2023-05-10T00:34:22;50.95;;;22.42;;
21110;SDS011;10713;51.912;4.494;2023-05-10T00:36:47;54.10;;;24.60;;
21110;SDS011;10713;51.912;4.494;2023-05-10T00:39:12;48.25;;;22.00;;
21110;SDS011;10713;51.912;4.494;2023-05-10T00:41:38;49.22;;;22.90;;
21110;SDS011;10713;51.912;4.494;2023-05-10T00:44:03;55.55;;;23.80;;
21110;SDS011;10713;51.912;4.494;2023-05-10T00:46:29;53.30;;;22.73;;
21110;SDS011;10713;51.912;4.494;2023-05-10T00:48:54;52.10;;;21.92;;
21110;SDS011;10713;51.912;4.494;2023-05-10T00:51:20;47.47;;;20.27;;
21110;SDS011;10713;51.912;4.494;2023-05-10T00:53:45;51.40;;;22.00;;
21110;SDS011;10713;51.912;4.494;2023-05-10T00:56:11;55.13;;;23.60;;
21110;SDS011;10713;51.912;4.494;2023-05-10T00:58:37;55.00;;;23.13;;
21110;SDS011;10713;51.912;4.494;2023-05-10T01:01:03;53.78;;;23.45;;
21110;SDS011;10713;51.912;4.494;2023-05-10T01:03:30;60.53;;;23.25;;
21110;SDS011;10713;51.912;4.494;2023-05-10T01:05:57;50.67;;;21.02;;
21110;SDS011;10713;51.912;4.494;2023-05-10T01:08:22;60.83;;;22.80;;
21110;SDS011;10713;51.912;4.494;2023-05-10T01:10:47;47.92;;;20.52;;
21110;SDS011;10713;51.912;4.494;2023-05-10T01:13:16;53.78;;;23.25;;
21110;SDS011;10713;51.912;4.494;2023-05-10T01:15:48;59.63;;;23.08;;
21110;SDS011;10713;51.912;4.494;2023-05-10T01:18:14;48.45;;;20.95;;
21110;SDS011;10713;51.912;4.494;2023-05-10T01:20:43;57.35;;;23.20;;
21110;SDS011;10713;51.912;4.494;2023-05-10T01:23:47;62.97;;;23.45;;
21110;SDS011;10713;51.912;4.494;2023-05-10T01:34:16;59.20;;;22.77;;
21110;SDS011;10713;51.912;4.494;2023-05-10T01:36:55;64.50;;;23.90;;
21110;SDS011;10713;51.912;4.494;2023-05-10T01:39:44;58.67;;;22.63;;
21110;SDS011;10713;51.912;4.494;2023-05-10T01:42:21;58.83;;;22.98;;
21110;SDS011;10713;51.912;4.494;2023-05-10T01:44:58;63.60;;;23.70;;
21110;SDS011;10713;51.912;4.494;2023-05-10T01:50:18;63.65;;;23.65;;
21110;SDS011;10713;51.912;4.494;2023-05-10T01:52:49;49.80;;;20.52;;
21110;SDS011;10713;51.912;4.494;2023-05-10T01:55:20;52.35;;;21.80;;
21110;SDS011;10713;51.912;4.494;2023-05-10T01:57:46;42.28;;;17.60;;
21110;SDS011;10713;51.912;4.494;2023-05-10T02:00:15;60.53;;;23.05;;
21110;SDS011;10713;51.912;4.494;2023-05-10T02:02:46;56.65;;;23.00;;
21110;SDS011;10713;51.912;4.494;2023-05-10T02:05:15;53.50;;;22.13;;
21110;SDS011;10713;51.912;4.494;2023-05-10T02:07:41;59.22;;;22.75;;
21110;SDS011;10713;51.912;4.494;2023-05-10T02:10:08;48.40;;;21.10;;
21110;SDS011;10713;51.912;4.494;2023-05-10T02:12:35;47.42;;;19.67;;
21110;SDS011;10713;51.912;4.494;2023-05-10T02:15:04;38.03;;;16.55;;
21110;SDS011;10713;51.912;4.494;2023-05-10T02:17:31;57.53;;;22.23;;
21110;SDS011;10713;51.912;4.494;2023-05-10T02:19:59;59.28;;;23.13;;
21110;SDS011;10713;51.912;4.494;2023-05-10T02:22:26;49.38;;;21.35;;
21110;SDS011;10713;51.912;4.494;2023-05-10T02:24:57;40.40;;;18.90;;
21110;SDS011;10713;51.912;4.494;2023-05-10T02:27:24;52.08;;;22.58;;
21110;SDS011;10713;51.912;4.494;2023-05-10T02:29:52;41.65;;;18.25;;
21110;SDS011;10713;51.912;4.494;2023-05-10T02:32:18;49.03;;;23.88;;
21110;SDS011;10713;51.912;4.494;2023-05-10T02:34:44;42.65;;;19.85;;
21110;SDS011;10713;51.912;4.494;2023-05-10T02:37:16;44.67;;;19.52;;
21110;SDS011;10713;51.912;4.494;2023-05-10T02:39:45;46.90;;;23.05;;
21110;SDS011;10713;51.912;4.494;2023-05-10T02:42:13;33.13;;;17.55;;
21110;SDS011;10713;51.912;4.494;2023-05-10T02:44:42;42.03;;;20.98;;
21110;SDS011;10713;51.912;4.494;2023-05-10T02:47:10;37.10;;;18.50;;
21110;SDS011;10713;51.912;4.494;2023-05-10T02:49:36;42.15;;;20.38;;
21110;SDS011;10713;51.912;4.494;2023-05-10T02:52:02;43.13;;;20.95;;
21110;SDS011;10713;51.912;4.494;2023-05-10T02:54:33;44.47;;;20.58;;
21110;SDS011;10713;51.912;4.494;2023-05-10T02:57:04;39.25;;;19.20;;
21110;SDS011;10713;51.912;4.494;2023-05-10T02:59:31;44.08;;;22.05;;
21110;SDS011;10713;51.912;4.494;2023-05-10T03:01:58;44.20;;;21.85;;
21110;SDS011;10713;51.912;4.494;2023-05-10T03:04:25;37.80;;;20.13;;
21110;SDS011;10713;51.912;4.494;2023-05-10T03:06:50;35.92;;;20.88;;
21110;SDS011;10713;51.912;4.494;2023-05-10T03:09:16;35.97;;;17.92;;
21110;SDS011;10713;51.912;4.494;2023-05-10T03:17:23;48.17;;;22.77;;
21110;SDS011;10713;51.912;4.494;2023-05-10T03:19:54;41.63;;;22.88;;
21110;SDS011;10713;51.912;4.494;2023-05-10T03:22:23;44.28;;;22.38;;
21110;SDS011;10713;51.912;4.494;2023-05-10T03:24:53;46.45;;;25.23;;
21110;SDS011;10713;51.912;4.494;2023-05-10T03:27:21;49.85;;;23.88;;
21110;SDS011;10713;51.912;4.494;2023-05-10T03:29:47;45.80;;;22.65;;
21110;SDS011;10713;51.912;4.494;2023-05-10T03:32:16;52.40;;;25.73;;
21110;SDS011;10713;51.912;4.494;2023-05-10T03:34:41;54.80;;;25.60;;
21110;SDS011;10713;51.912;4.494;2023-05-10T03:37:08;46.47;;;22.52;;
21110;SDS011;10713;51.912;4.494;2023-05-10T03:39:33;50.97;;;26.60;;
21110;SDS011;10713;51.912;4.494;2023-05-10T03:41:59;45.85;;;23.92;;
21110;SDS011;10713;51.912;4.494;2023-05-10T03:44:24;52.90;;;26.50;;
21110;SDS011;10713;51.912;4.494;2023-05-10T03:46:49;63.80;;;30.85;;
21110;SDS011;10713;51.912;4.494;2023-05-10T03:49:15;54.88;;;27.30;;
21110;SDS011;10713;51.912;4.494;2023-05-10T03:51:40;63.63;;;28.80;;
21110;SDS011;10713;51.912;4.494;2023-05-10T03:54:05;55.35;;;27.95;;
21110;SDS011;10713;51.912;4.494;2023-05-10T03:56:31;55.78;;;25.58;;
21110;SDS011;10713;51.912;4.494;2023-05-10T03:58:56;53.15;;;27.83;;
21110;SDS011;10713;51.912;4.494;2023-05-10T04:01:21;58.42;;;28.00;;
21110;SDS011;10713;51.912;4.494;2023-05-10T04:03:47;57.58;;;28.25;;
21110;SDS011;10713;51.912;4.494;2023-05-10T04:06:12;63.92;;;29.40;;
21110;SDS011;10713;51.912;4.494;2023-05-10T04:08:38;64.18;;;29.52;;
21110;SDS011;10713;51.912;4.494;2023-05-10T04:11:10;52.58;;;23.77;;
21110;SDS011;10713;51.912;4.494;2023-05-10T04:13:37;45.70;;;21.85;;
21110;SDS011;10713;51.912;4.494;2023-05-10T04:16:03;58.17;;;23.85;;
21110;SDS011;10713;51.912;4.494;2023-05-10T04:18:29;48.38;;;22.67;;
21110;SDS011;10713;51.912;4.494;2023-05-10T04:20:55;55.85;;;25.27;;
21110;SDS011;10713;51.912;4.494;2023-05-10T04:23:20;53.75;;;22.83;;
21110;SDS011;10713;51.912;4.494;2023-05-10T04:25:46;53.13;;;23.90;;
21110;SDS011;10713;51.912;4.494;2023-05-10T04:28:11;62.05;;;26.73;;
21110;SDS011;10713;51.912;4.494;2023-05-10T04:30:36;47.95;;;22.00;;
21110;SDS011;10713;51.912;4.494;2023-05-10T04:33:02;53.55;;;24.48;;
21110;SDS011;10713;51.912;4.494;2023-05-10T04:35:28;55.35;;;22.23;;
21110;SDS011;10713;51.912;4.494;2023-05-10T04:37:53;54.20;;;21.83;;
21110;SDS011;10713;51.912;4.494;2023-05-10T04:40:19;58.63;;;21.80;;
21110;SDS011;10713;51.912;4.494;2023-05-10T04:42:45;73.05;;;28.40;;
21110;SDS011;10713;51.912;4.494;2023-05-10T04:45:10;72.65;;;27.48;;
21110;SDS011;10713;51.912;4.494;2023-05-10T04:47:35;71.60;;;27.40;;
21110;SDS011;10713;51.912;4.494;2023-05-10T04:50:02;40.45;;;17.98;;
21110;SDS011;10713;51.912;4.494;2023-05-10T04:52:28;64.47;;;27.02;;
21110;SDS011;10713;51.912;4.494;2023-05-10T04:54:53;74.95;;;25.60;;
21110;SDS011;10713;51.912;4.494;2023-05-10T04:57:19;64.75;;;24.30;;
21110;SDS011;10713;51.912;4.494;2023-05-10T04:59:44;50.47;;;19.35;;
21110;SDS011;10713;51.912;4.494;2023-05-10T05:02:10;50.05;;;18.92;;
21110;SDS011;10713;51.912;4.494;2023-05-10T05:04:35;39.85;;;16.63;;
21110;SDS011;10713;51.912;4.494;2023-05-10T05:07:00;27.38;;;12.10;;
21110;SDS011;10713;51.912;4.494;2023-05-10T05:09:26;26.27;;;12.38;;
21110;SDS011;10713;51.912;4.494;2023-05-10T05:11:51;31.27;;;13.13;;
21110;SDS011;10713;51.912;4.494;2023-05-10T05:14:16;21.30;;;10.73;;
21110;SDS011;10713;51.912;4.494;2023-05-10T05:16:42;23.38;;;11.93;;
21110;SDS011;10713;51.912;4.494;2023-05-10T05:19:07;27.10;;;12.75;;
21110;SDS011;10713;51.912;4.494;2023-05-10T05:21:32;24.98;;;11.70;;
21110;SDS011;10713;51.912;4.494;2023-05-10T05:23:58;18.55;;;9.93;;
21110;SDS011;10713;51.912;4.494;2023-05-10T05:26:23;16.48;;;8.70;;
21110;SDS011;10713;51.912;4.494;2023-05-10T05:28:48;17.55;;;9.13;;
21110;SDS011;10713;51.912;4.494;2023-05-10T05:31:16;17.05;;;8.63;;
21110;SDS011;10713;51.912;4.494;2023-05-10T05:33:42;16.40;;;9.63;;
21110;SDS011;10713;51.912;4.494;2023-05-10T05:36:08;16.08;;;9.45;;
21110;SDS011;10713;51.912;4.494;2023-05-10T05:38:34;17.35;;;10.10;;
21110;SDS011;10713;51.912;4.494;2023-05-10T05:40:59;21.30;;;10.55;;
21110;SDS011;10713;51.912;4.494;2023-05-10T05:43:24;27.88;;;10.82;;
21110;SDS011;10713;51.912;4.494;2023-05-10T05:45:51;20.33;;;10.07;;
21110;SDS011;10713;51.912;4.494;2023-05-10T05:48:17;28.45;;;11.82;;
21110;SDS011;10713;51.912;4.494;2023-05-10T05:50:42;22.65;;;10.35;;
21110;SDS011;10713;51.912;4.494;2023-05-10T05:53:08;29.77;;;12.20;;
21110;SDS011;10713;51.912;4.494;2023-05-10T05:55:34;30.05;;;12.43;;
21110;SDS011;10713;51.912;4.494;2023-05-10T05:57:59;24.27;;;10.40;;
21110;SDS011;10713;51.912;4.494;2023-05-10T06:00:24;34.13;;;11.80;;
21110;SDS011;10713;51.912;4.494;2023-05-10T06:02:50;31.98;;;12.55;;
21110;SDS011;10713;51.912;4.494;2023-05-10T06:05:16;50.83;;;13.40;;
21110;SDS011;10713;51.912;4.494;2023-05-10T06:07:41;28.40;;;12.63;;
21110;SDS011;10713;51.912;4.494;2023-05-10T06:10:07;31.95;;;13.43;;
21110;SDS011;10713;51.912;4.494;2023-05-10T06:12:33;34.83;;;11.80;;
21110;SDS011;10713;51.912;4.494;2023-05-10T06:14:58;33.13;;;12.07;;
21110;SDS011;10713;51.912;4.494;2023-05-10T06:17:24;33.42;;;13.02;;
21110;SDS011;10713;51.912;4.494;2023-05-10T06:19:50;37.35;;;13.93;;
21110;SDS011;10713;51.912;4.494;2023-05-10T06:22:15;28.88;;;12.80;;
21110;SDS011;10713;51.912;4.494;2023-05-10T06:24:40;46.10;;;15.48;;
21110;SDS011;10713;51.912;4.494;2023-05-10T06:27:06;38.35;;;13.43;;
21110;SDS011;10713;51.912;4.494;2023-05-10T06:29:32;32.53;;;13.50;;
21110;SDS011;10713;51.912;4.494;2023-05-10T06:31:57;29.95;;;12.82;;
21110;SDS011;10713;51.912;4.494;2023-05-10T06:34:23;24.23;;;11.55;;
21110;SDS011;10713;51.912;4.494;2023-05-10T06:36:49;30.95;;;11.63;;
21110;SDS011;10713;51.912;4.494;2023-05-10T06:39:14;23.20;;;10.40;;
21110;SDS011;10713;51.912;4.494;2023-05-10T06:41:40;58.90;;;13.25;;
21110;SDS011;10713;51.912;4.494;2023-05-10T06:44:05;25.95;;;10.73;;
21110;SDS011;10713;51.912;4.494;2023-05-10T06:46:30;24.90;;;10.55;;
21110;SDS011;10713;51.912;4.494;2023-05-10T06:48:56;19.02;;;9.07;;
21110;SDS011;10713;51.912;4.494;2023-05-10T06:51:21;16.70;;;8.93;;
21110;SDS011;10713;51.912;4.494;2023-05-10T06:53:47;18.48;;;8.60;;
21110;SDS011;10713;51.912;4.494;2023-05-10T06:56:12;11.27;;;6.60;;
21110;SDS011;10713;51.912;4.494;2023-05-10T06:58:38;18.23;;;7.78;;
21110;SDS011;10713;51.912;4.494;2023-05-10T07:01:03;12.82;;;7.10;;
21110;SDS011;10713;51.912;4.494;2023-05-10T07:03:30;21.40;;;7.47;;
21110;SDS011;10713;51.912;4.494;2023-05-10T07:06:02;16.00;;;6.85;;
21110;SDS011;10713;51.912;4.494;2023-05-10T07:08:31;11.93;;;6.28;;
21110;SDS011;10713;51.912;4.494;2023-05-10T07:11:07;13.73;;;5.80;;
21110;SDS011;10713;51.912;4.494;2023-05-10T07:13:33;19.75;;;7.00;;
21110;SDS011;10713;51.912;4.494;2023-05-10T07:15:59;14.65;;;6.35;;
21110;SDS011;10713;51.912;4.494;2023-05-10T07:18:25;11.60;;;5.50;;
21110;SDS011;10713;51.912;4.494;2023-05-10T07:20:51;11.43;;;5.45;;
21110;SDS011;10713;51.912;4.494;2023-05-10T07:23:16;8.70;;;4.97;;
21110;SDS011;10713;51.912;4.494;2023-05-10T07:25:45;7.47;;;5.15;;
21110;SDS011;10713;51.912;4.494;2023-05-10T07:28:14;10.45;;;5.35;;
21110;SDS011;10713;51.912;4.494;2023-05-10T07:30:41;10.38;;;5.45;;
21110;SDS011;10713;51.912;4.494;2023-05-10T07:33:06;9.43;;;5.57;;
21110;SDS011;10713;51.912;4.494;2023-05-10T07:35:33;9.00;;;4.63;;
21110;SDS011;10713;51.912;4.494;2023-05-10T07:37:58;6.35;;;4.63;;
21110;SDS011;10713;51.912;4.494;2023-05-10T07:40:24;9.52;;;5.32;;
21110;SDS011;10713;51.912;4.494;2023-05-10T07:42:49;17.02;;;6.70;;
21110;SDS011;10713;51.912;4.494;2023-05-10T07:45:15;11.05;;;5.50;;
21110;SDS011;10713;51.912;4.494;2023-05-10T07:47:41;13.85;;;5.35;;
21110;SDS011;10713;51.912;4.494;2023-05-10T07:50:06;10.40;;;5.72;;
21110;SDS011;10713;51.912;4.494;2023-05-10T07:52:32;12.45;;;6.10;;
21110;SDS011;10713;51.912;4.494;2023-05-10T07:54:58;10.50;;;6.47;;
21110;SDS011;10713;51.912;4.494;2023-05-10T07:57:23;8.43;;;6.20;;
21110;SDS011;10713;51.912;4.494;2023-05-10T07:59:48;9.18;;;6.65;;
21110;SDS011;10713;51.912;4.494;2023-05-10T08:02:14;10.35;;;6.88;;
21110;SDS011;10713;51.912;4.494;2023-05-10T08:04:39;9.88;;;6.57;;
21110;SDS011;10713;51.912;4.494;2023-05-10T08:07:05;13.57;;;7.25;;
21110;SDS011;10713;51.912;4.494;2023-05-10T08:09:30;8.60;;;6.70;;
21110;SDS011;10713;51.912;4.494;2023-05-10T08:11:55;7.25;;;5.57;;
21110;SDS011;10713;51.912;4.494;2023-05-10T08:14:21;8.18;;;5.82;;
21110;SDS011;10713;51.912;4.494;2023-05-10T08:16:46;10.38;;;5.95;;
21110;SDS011;10713;51.912;4.494;2023-05-10T08:19:12;6.82;;;5.55;;
21110;SDS011;10713;51.912;4.494;2023-05-10T08:21:37;7.63;;;6.03;;
21110;SDS011;10713;51.912;4.494;2023-05-10T08:24:03;17.98;;;7.30;;
21110;SDS011;10713;51.912;4.494;2023-05-10T08:26:28;10.32;;;6.00;;
21110;SDS011;10713;51.912;4.494;2023-05-10T08:28:53;10.05;;;6.95;;
21110;SDS011;10713;51.912;4.494;2023-05-10T08:31:19;8.32;;;5.45;;
21110;SDS011;10713;51.912;4.494;2023-05-10T08:33:44;8.43;;;5.40;;
21110;SDS011;10713;51.912;4.494;2023-05-10T08:36:10;12.68;;;6.32;;
21110;SDS011;10713;51.912;4.494;2023-05-10T08:38:36;8.43;;;5.68;;
21110;SDS011;10713;51.912;4.494;2023-05-10T08:41:02;14.27;;;8.00;;
21110;SDS011;10713;51.912;4.494;2023-05-10T08:43:29;14.18;;;10.10;;
21110;SDS011;10713;51.912;4.494;2023-05-10T08:45:55;17.50;;;9.75;;
21110;SDS011;10713;51.912;4.494;2023-05-10T08:48:24;14.55;;;10.57;;
21110;SDS011;10713;51.912;4.494;2023-05-10T08:50:50;13.23;;;10.40;;
21110;SDS011;10713;51.912;4.494;2023-05-10T08:53:18;14.88;;;10.25;;
21110;SDS011;10713;51.912;4.494;2023-05-10T08:55:44;20.15;;;10.07;;
21110;SDS011;10713;51.912;4.494;2023-05-10T08:58:11;23.98;;;11.55;;
21110;SDS011;10713;51.912;4.494;2023-05-10T09:00:36;27.45;;;11.25;;
21110;SDS011;10713;51.912;4.494;2023-05-10T09:03:02;14.43;;;8.65;;
21110;SDS011;10713;51.912;4.494;2023-05-10T09:05:29;12.10;;;8.38;;
21110;SDS011;10713;51.912;4.494;2023-05-10T09:07:54;10.90;;;7.78;;
21110;SDS011;10713;51.912;4.494;2023-05-10T09:10:20;11.98;;;7.85;;
21110;SDS011;10713;51.912;4.494;2023-05-10T09:12:45;12.05;;;7.68;;
21110;SDS011;10713;51.912;4.494;2023-05-10T09:15:14;14.98;;;8.45;;
21110;SDS011;10713;51.912;4.494;2023-05-10T09:17:40;12.93;;;7.88;;
21110;SDS011;10713;51.912;4.494;2023-05-10T09:20:06;11.60;;;7.72;;
21110;SDS011;10713;51.912;4.494;2023-05-10T09:22:32;13.43;;;8.02;;
21110;SDS011;10713;51.912;4.494;2023-05-10T09:25:07;11.57;;;7.82;;
21110;SDS011;10713;51.912;4.494;2023-05-10T09:27:36;12.25;;;8.02;;
21110;SDS011;10713;51.912;4.494;2023-05-10T09:30:03;21.30;;;10.05;;
21110;SDS011;10713;51.912;4.494;2023-05-10T09:37:36;12.13;;;7.57;;
21110;SDS011;10713;51.912;4.494;2023-05-10T09:40:06;13.00;;;6.85;;
21110;SDS011;10713;51.912;4.494;2023-05-10T09:42:33;17.13;;;9.25;;
21110;SDS011;10713;51.912;4.494;2023-05-10T09:45:02;13.90;;;9.05;;
21110;SDS011;10713;51.912;4.494;2023-05-10T09:47:32;17.25;;;9.13;;
21110;SDS011;10713;51.912;4.494;2023-05-10T09:49:59;17.05;;;8.75;;
21110;SDS011;10713;51.912;4.494;2023-05-10T09:52:28;28.10;;;9.90;;
21110;SDS011;10713;51.912;4.494;2023-05-10T09:54:54;17.65;;;9.70;;
21110;SDS011;10713;51.912;4.494;2023-05-10T09:57:20;16.63;;;9.55;;
21110;SDS011;10713;51.912;4.494;2023-05-10T09:59:47;18.55;;;9.68;;
21110;SDS011;10713;51.912;4.494;2023-05-10T10:02:12;14.30;;;7.60;;
21110;SDS011;10713;51.912;4.494;2023-05-10T10:04:41;13.90;;;8.13;;
21110;SDS011;10713;51.912;4.494;2023-05-10T10:07:07;15.68;;;8.00;;
21110;SDS011;10713;51.912;4.494;2023-05-10T10:09:34;12.27;;;7.57;;
21110;SDS011;10713;51.912;4.494;2023-05-10T10:12:00;11.90;;;7.85;;
21110;SDS011;10713;51.912;4.494;2023-05-10T10:14:26;12.63;;;8.13;;
21110;SDS011;10713;51.912;4.494;2023-05-10T10:16:52;9.75;;;6.30;;
21110;SDS011;10713;51.912;4.494;2023-05-10T10:19:18;8.93;;;5.82;;
21110;SDS011;10713;51.912;4.494;2023-05-10T10:21:45;11.45;;;6.25;;
21110;SDS011;10713;51.912;4.494;2023-05-10T10:24:11;8.27;;;5.60;;
21110;SDS011;10713;51.912;4.494;2023-05-10T10:26:36;12.30;;;5.60;;
21110;SDS011;10713;51.912;4.494;2023-05-10T10:29:23;11.77;;;5.32;;
21110;SDS011;10713;51.912;4.494;2023-05-10T10:32:01;9.35;;;5.50;;
21110;SDS011;10713;51.912;4.494;2023-05-10T10:34:34;14.18;;;5.60;;
21110;SDS011;10713;51.912;4.494;2023-05-10T10:37:03;19.60;;;6.80;;
21110;SDS011;10713;51.912;4.494;2023-05-10T10:39:30;10.30;;;6.13;;
21110;SDS011;10713;51.912;4.494;2023-05-10T10:41:56;12.32;;;6.43;;
21110;SDS011;10713;51.912;4.494;2023-05-10T10:44:24;14.05;;;6.45;;
21110;SDS011;10713;51.912;4.494;2023-05-10T10:49:50;14.55;;;7.68;;
21110;SDS011;10713;51.912;4.494;2023-05-10T10:54:57;20.83;;;11.82;;
21110;SDS011;10713;51.912;4.494;2023-05-10T10:57:24;9.73;;;7.05;;
21110;SDS011;10713;51.912;4.494;2023-05-10T10:59:51;12.18;;;7.78;;
21110;SDS011;10713;51.912;4.494;2023-05-10T11:02:43;11.00;;;8.73;;
21110;SDS011;10713;51.912;4.494;2023-05-10T11:05:38;9.57;;;6.13;;
21110;SDS011;10713;51.912;4.494;2023-05-10T11:10:50;13.20;;;7.65;;
21110;SDS011;10713;51.912;4.494;2023-05-10T11:13:17;13.45;;;7.30;;
21110;SDS011;10713;51.912;4.494;2023-05-10T11:15:55;7.70;;;5.45;;
21110;SDS011;10713;51.912;4.494;2023-05-10T11:18:28;8.20;;;5.03;;
21110;SDS011;10713;51.912;4.494;2023-05-10T11:23:21;7.18;;;5.00;;
21110;SDS011;10713;51.912;4.494;2023-05-10T11:25:47;6.53;;;4.97;;
21110;SDS011;10713;51.912;4.494;2023-05-10T11:28:14;9.20;;;5.70;;
21110;SDS011;10713;51.912;4.494;2023-05-10T11:30:39;9.90;;;4.65;;
21110;SDS011;10713;51.912;4.494;2023-05-10T11:33:07;9.27;;;4.50;;
21110;SDS011;10713;51.912;4.494;2023-05-10T11:35:37;7.75;;;4.68;;
21110;SDS011;10713;51.912;4.494;2023-05-10T11:38:07;7.10;;;4.25;;
21110;SDS011;10713;51.912;4.494;2023-05-10T11:40:33;8.48;;;3.88;;
21110;SDS011;10713;51.912;4.494;2023-05-10T11:42:59;7.68;;;4.80;;
21110;SDS011;10713;51.912;4.494;2023-05-10T11:45:25;10.07;;;5.22;;
21110;SDS011;10713;51.912;4.494;2023-05-10T11:47:51;8.27;;;5.05;;
21110;SDS011;10713;51.912;4.494;2023-05-10T11:50:17;17.13;;;5.28;;
21110;SDS011;10713;51.912;4.494;2023-05-10T11:52:42;11.32;;;4.60;;
21110;SDS011;10713;51.912;4.494;2023-05-10T11:55:08;10.20;;;4.65;;
21110;SDS011;10713;51.912;4.494;2023-05-10T11:57:34;8.93;;;3.80;;
21110;SDS011;10713;51.912;4.494;2023-05-10T12:00:00;6.43;;;3.95;;
21110;SDS011;10713;51.912;4.494;2023-05-10T12:02:28;7.78;;;4.40;;
21110;SDS011;10713;51.912;4.494;2023-05-10T12:04:54;7.88;;;4.38;;
21110;SDS011;10713;51.912;4.494;2023-05-10T12:07:20;7.90;;;4.30;;
21110;SDS011;10713;51.912;4.494;2023-05-10T12:10:05;7.60;;;3.83;;
21110;SDS011;10713;51.912;4.494;2023-05-10T12:12:37;8.18;;;3.72;;
21110;SDS011;10713;51.912;4.494;2023-05-10T12:15:04;7.75;;;4.68;;
21110;SDS011;10713;51.912;4.494;2023-05-10T12:17:31;6.18;;;3.50;;
21110;SDS011;10713;51.912;4.494;2023-05-10T12:22:45;8.40;;;3.70;;
21110;SDS011;10713;51.912;4.494;2023-05-10T12:25:12;9.63;;;4.07;;
21110;SDS011;10713;51.912;4.494;2023-05-10T12:27:37;10.57;;;4.22;;
21110;SDS011;10713;51.912;4.494;2023-05-10T12:30:03;7.78;;;3.83;;
21110;SDS011;10713;51.912;4.494;2023-05-10T12:32:41;5.20;;;3.35;;
21110;SDS011;10713;51.912;4.494;2023-05-10T12:35:07;8.93;;;4.90;;
21110;SDS011;10713;51.912;4.494;2023-05-10T12:37:33;8.07;;;4.25;;
21110;SDS011;10713;51.912;4.494;2023-05-10T12:40:04;7.38;;;4.68;;
21110;SDS011;10713;51.912;4.494;2023-05-10T12:42:31;8.10;;;4.78;;
21110;SDS011;10713;51.912;4.494;2023-05-10T12:44:57;8.43;;;4.25;;
21110;SDS011;10713;51.912;4.494;2023-05-10T12:47:22;9.57;;;4.90;;
21110;SDS011;10713;51.912;4.494;2023-05-10T12:49:48;11.05;;;4.97;;
21110;SDS011;10713;51.912;4.494;2023-05-10T12:52:13;5.80;;;3.75;;
21110;SDS011;10713;51.912;4.494;2023-05-10T12:54:38;6.97;;;3.60;;
21110;SDS011;10713;51.912;4.494;2023-05-10T12:57:03;5.50;;;3.05;;
21110;SDS011;10713;51.912;4.494;2023-05-10T12:59:29;7.97;;;3.40;;
21110;SDS011;10713;51.912;4.494;2023-05-10T13:01:54;6.43;;;3.80;;
21110;SDS011;10713;51.912;4.494;2023-05-10T13:04:20;7.68;;;4.13;;
21110;SDS011;10713;51.912;4.494;2023-05-10T13:06:45;7.32;;;4.50;;
21110;SDS011;10713;51.912;4.494;2023-05-10T13:09:10;9.82;;;5.47;;
21110;SDS011;10713;51.912;4.494;2023-05-10T13:11:36;6.35;;;4.28;;
21110;SDS011;10713;51.912;4.494;2023-05-10T13:14:01;6.88;;;5.10;;
21110;SDS011;10713;51.912;4.494;2023-05-10T13:16:28;5.55;;;4.00;;
21110;SDS011;10713;51.912;4.494;2023-05-10T13:18:53;9.63;;;5.30;;
21110;SDS011;10713;51.912;4.494;2023-05-10T13:21:18;10.77;;;5.07;;
21110;SDS011;10713;51.912;4.494;2023-05-10T13:23:44;12.07;;;5.18;;
21110;SDS011;10713;51.912;4.494;2023-05-10T13:26:09;11.40;;;6.20;;
21110;SDS011;10713;51.912;4.494;2023-05-10T13:28:35;7.63;;;5.25;;
21110;SDS011;10713;51.912;4.494;2023-05-10T13:31:00;11.10;;;4.82;;
21110;SDS011;10713;51.912;4.494;2023-05-10T13:33:25;11.98;;;5.47;;
21110;SDS011;10713;51.912;4.494;2023-05-10T13:35:51;9.70;;;5.50;;
21110;SDS011;10713;51.912;4.494;2023-05-10T13:38:16;10.27;;;5.63;;
21110;SDS011;10713;51.912;4.494;2023-05-10T13:40:42;8.27;;;4.75;;
21110;SDS011;10713;51.912;4.494;2023-05-10T13:43:07;8.40;;;4.45;;
21110;SDS011;10713;51.912;4.494;2023-05-10T13:45:32;10.85;;;4.70;;
21110;SDS011;10713;51.912;4.494;2023-05-10T13:47:58;13.80;;;4.90;;
21110;SDS011;10713;51.912;4.494;2023-05-10T13:50:23;9.07;;;4.65;;
21110;SDS011;10713;51.912;4.494;2023-05-10T13:52:49;14.40;;;4.32;;
21110;SDS011;10713;51.912;4.494;2023-05-10T13:55:14;5.90;;;3.50;;
21110;SDS011;10713;51.912;4.494;2023-05-10T13:57:40;7.80;;;4.47;;
21110;SDS011;10713;51.912;4.494;2023-05-10T14:00:06;10.13;;;3.72;;
21110;SDS011;10713;51.912;4.494;2023-05-10T14:02:31;7.70;;;4.05;;
21110;SDS011;10713;51.912;4.494;2023-05-10T14:04:57;11.02;;;4.65;;
21110;SDS011;10713;51.912;4.494;2023-05-10T14:07:22;8.50;;;4.32;;
21110;SDS011;10713;51.912;4.494;2023-05-10T14:09:47;6.05;;;3.33;;
21110;SDS011;10713;51.912;4.494;2023-05-10T14:12:13;8.15;;;4.30;;
21110;SDS011;10713;51.912;4.494;2023-05-10T14:14:39;7.45;;;3.15;;
21110;SDS011;10713;51.912;4.494;2023-05-10T14:17:05;8.85;;;4.03;;
21110;SDS011;10713;51.912;4.494;2023-05-10T14:19:30;10.05;;;4.32;;
21110;SDS011;10713;51.912;4.494;2023-05-10T14:21:57;10.10;;;5.30;;
21110;SDS011;10713;51.912;4.494;2023-05-10T14:24:22;15.75;;;5.00;;
21110;SDS011;10713;51.912;4.494;2023-05-10T14:26:48;7.65;;;4.95;;
21110;SDS011;10713;51.912;4.494;2023-05-10T14:29:13;14.45;;;6.72;;
21110;SDS011;10713;51.912;4.494;2023-05-10T14:31:39;12.10;;;5.03;;
21110;SDS011;10713;51.912;4.494;2023-05-10T14:34:05;14.15;;;6.50;;
21110;SDS011;10713;51.912;4.494;2023-05-10T14:36:30;13.48;;;7.03;;
21110;SDS011;10713;51.912;4.494;2023-05-10T14:38:56;13.98;;;6.35;;
21110;SDS011;10713;51.912;4.494;2023-05-10T14:41:23;9.85;;;5.47;;
21110;SDS011;10713;51.912;4.494;2023-05-10T14:43:48;13.98;;;6.57;;
21110;SDS011;10713;51.912;4.494;2023-05-10T14:46:13;10.95;;;5.93;;
21110;SDS011;10713;51.912;4.494;2023-05-10T14:48:39;16.40;;;6.63;;
21110;SDS011;10713;51.912;4.494;2023-05-10T14:51:04;11.85;;;6.53;;
21110;SDS011;10713;51.912;4.494;2023-05-10T14:53:29;7.93;;;5.70;;
21110;SDS011;10713;51.912;4.494;2023-05-10T14:55:55;9.10;;;5.05;;
21110;SDS011;10713;51.912;4.494;2023-05-10T14:58:20;13.88;;;5.97;;
21110;SDS011;10713;51.912;4.494;2023-05-10T15:00:45;13.50;;;6.22;;
21110;SDS011;10713;51.912;4.494;2023-05-10T15:03:11;7.13;;;3.83;;